Plattsmouth, NE (68048)

4:56 PM CDT on July 28, 2015 (GMT -0500)
Buccaneer Bay | | Change Station
CLOSE
Current Station
Personal Weather Station
Location: Plattsmouth, NE
Elevation: 978 ft
Nearby Weather Stations

Elev 978 ft 41.05 °N, 95.95 °W | Updated 19 seconds ago

Partly Cloudy
Partly Cloudy
89.6 °F
Feels Like 104 °F
N
5.1
Wind Variable Wind from NNW
Gusts 7.4 mph

Today
High -- | Low -- °F
--% Chance of Precip.
Yesterday
High -- | Low -- °F
Precip. -- in
6:15 AM 8:44 PM
Waxing Gibbous, 92% visible
Pressure 29.87 in
Visibility 10.0 miles
Clouds Scattered Clouds 3400 ft
Scattered Clouds 4200 ft
Mostly Cloudy 6500 ft
Heat Index 104 °F
Dew Point 78 °F
Humidity 69%
Rainfall 0.15 in
Snow Depth Not available.
UV 3.0 out of 12
Pollen 6.00 out of 12
Air Quality Not available.
Flu Activity Not available.
METAR KPMV 282135Z AUTO 28004KT 10SM SCT034 SCT042 BKN065 32/24 A2987 RMK AO2 T03200243

More Conditions Fewer Conditions

Pressure 29.87 in
Visibility 10.0 miles
Clouds Scattered Clouds 3400 ft
Scattered Clouds 4200 ft
Mostly Cloudy 6500 ft
Heat Index 104 °F
Dew Point 78 °F
Humidity 69%
Rainfall 0.15 in
Snow Depth Not available.
UV 3.0 out of 12
Pollen 6.00 out of 12
Air Quality Not available.
Flu Activity Not available.
METAR KPMV 282135Z AUTO 28004KT 10SM SCT034 SCT042 BKN065 32/24 A2987 RMK AO2 T03200243

More Conditions Fewer Conditions

10-Day Weather Forecast

×

Almanac

Astronomy

Jul. 28, 2015 Rise Set
Actual Time
Civil Twilight
Nautical Twilight
Astronomical Twilight
Moon
Length of Visible Light
Length of Day
Tomorrow will be .
, % of the Moon is Illuminated

Today's Extremes

State Highs State Lows

Community

WunderPhotos

Upload Photos

1,841,948 photos uploaded!

WunderBlogs® & News

Nearby

Air Quality

  Air Quality AQ Index Pollutant
Not available.

Snow Depth

Station Depth Elevation

Earthquake Activity

City Distance Mag. Time & Date
Minimum magnitude displayed is 2.5.

Coastal Water Temperatures

Place Temperature

Stations

Nearby Weather Stations

Station Location Temp. Windchill Dew Point Humidity Wind Precip. Elev Updated Type